sensor_id;sensor_type;location;lat;lon;timestamp;pressure;altitude;pressure_sealevel;temperature;humidity
8286;BME280;4181;43.416;24.598;2023-09-19T00:01:06;100387.44;;;18.65;100.00
8286;BME280;4181;43.416;24.598;2023-09-19T00:03:35;100394.00;;;18.51;100.00
8286;BME280;4181;43.416;24.598;2023-09-19T00:06:04;100395.88;;;18.55;100.00
8286;BME280;4181;43.416;24.598;2023-09-19T00:08:30;100385.72;;;18.69;100.00
8286;BME280;4181;43.416;24.598;2023-09-19T00:10:56;100385.47;;;18.84;100.00
8286;BME280;4181;43.416;24.598;2023-09-19T00:13:21;100380.72;;;18.90;100.00
8286;BME280;4181;43.416;24.598;2023-09-19T00:15:48;100385.78;;;19.02;100.00
8286;BME280;4181;43.416;24.598;2023-09-19T00:18:13;100378.63;;;19.01;100.00
8286;BME280;4181;43.416;24.598;2023-09-19T00:20:41;100381.53;;;18.72;100.00
8286;BME280;4181;43.416;24.598;2023-09-19T00:23:07;100377.94;;;18.53;100.00
8286;BME280;4181;43.416;24.598;2023-09-19T00:25:36;100364.66;;;18.31;100.00
8286;BME280;4181;43.416;24.598;2023-09-19T00:28:03;100367.78;;;18.25;100.00
8286;BME280;4181;43.416;24.598;2023-09-19T00:30:29;100366.03;;;18.34;100.00
8286;BME280;4181;43.416;24.598;2023-09-19T00:32:55;100379.97;;;18.47;100.00
8286;BME280;4181;43.416;24.598;2023-09-19T00:35:23;100369.72;;;18.66;100.00
8286;BME280;4181;43.416;24.598;2023-09-19T00:37:50;100368.91;;;18.84;100.00
8286;BME280;4181;43.416;24.598;2023-09-19T00:40:15;100369.56;;;18.95;100.00
8286;BME280;4181;43.416;24.598;2023-09-19T00:42:45;100375.69;;;19.11;100.00
8286;BME280;4181;43.416;24.598;2023-09-19T00:45:12;100376.69;;;19.15;100.00
8286;BME280;4181;43.416;24.598;2023-09-19T00:47:49;100365.56;;;19.20;100.00
8286;BME280;4181;43.416;24.598;2023-09-19T00:50:17;100378.50;;;19.24;100.00
8286;BME280;4181;43.416;24.598;2023-09-19T00:52:46;100369.06;;;19.25;100.00
8286;BME280;4181;43.416;24.598;2023-09-19T00:55:12;100369.25;;;19.15;100.00
8286;BME280;4181;43.416;24.598;2023-09-19T00:57:39;100371.28;;;18.91;100.00
8286;BME280;4181;43.416;24.598;2023-09-19T01:00:07;100373.84;;;18.87;100.00
8286;BME280;4181;43.416;24.598;2023-09-19T01:02:34;100370.56;;;18.85;100.00
8286;BME280;4181;43.416;24.598;2023-09-19T01:05:00;100364.41;;;18.88;100.00
8286;BME280;4181;43.416;24.598;2023-09-19T01:07:29;100367.41;;;18.92;100.00
8286;BME280;4181;43.416;24.598;2023-09-19T01:09:57;100360.97;;;18.97;100.00
8286;BME280;4181;43.416;24.598;2023-09-19T01:12:33;100363.88;;;19.05;100.00
8286;BME280;4181;43.416;24.598;2023-09-19T01:17:59;100368.91;;;18.84;100.00
8286;BME280;4181;43.416;24.598;2023-09-19T01:20:27;100370.63;;;18.80;100.00
8286;BME280;4181;43.416;24.598;2023-09-19T01:25:56;100364.81;;;18.63;100.00
8286;BME280;4181;43.416;24.598;2023-09-19T01:28:39;100366.16;;;18.47;100.00
8286;BME280;4181;43.416;24.598;2023-09-19T01:31:10;100362.63;;;18.42;100.00
8286;BME280;4181;43.416;24.598;2023-09-19T01:33:56;100365.19;;;18.33;100.00
8286;BME280;4181;43.416;24.598;2023-09-19T01:36:26;100360.81;;;18.09;100.00
8286;BME280;4181;43.416;24.598;2023-09-19T01:38:52;100358.38;;;17.84;100.00
8286;BME280;4181;43.416;24.598;2023-09-19T01:41:29;100352.78;;;17.65;100.00
8286;BME280;4181;43.416;24.598;2023-09-19T01:43:59;100352.38;;;17.77;100.00
8286;BME280;4181;43.416;24.598;2023-09-19T01:46:39;100357.59;;;17.78;100.00
8286;BME280;4181;43.416;24.598;2023-09-19T01:49:42;100353.16;;;17.82;100.00
8286;BME280;4181;43.416;24.598;2023-09-19T01:52:14;100357.00;;;17.81;100.00
8286;BME280;4181;43.416;24.598;2023-09-19T01:54:57;100362.53;;;17.81;100.00
8286;BME280;4181;43.416;24.598;2023-09-19T01:57:29;100365.88;;;17.78;100.00
8286;BME280;4181;43.416;24.598;2023-09-19T02:00:05;100361.19;;;17.79;100.00
8286;BME280;4181;43.416;24.598;2023-09-19T02:02:36;100367.25;;;17.81;100.00
8286;BME280;4181;43.416;24.598;2023-09-19T02:05:04;100380.97;;;17.86;100.00
8286;BME280;4181;43.416;24.598;2023-09-19T02:07:30;100380.69;;;17.87;100.00
8286;BME280;4181;43.416;24.598;2023-09-19T02:09:59;100378.22;;;17.86;100.00
8286;BME280;4181;43.416;24.598;2023-09-19T02:12:31;100373.50;;;17.86;100.00
8286;BME280;4181;43.416;24.598;2023-09-19T02:14:58;100377.97;;;17.58;100.00
8286;BME280;4181;43.416;24.598;2023-09-19T02:17:25;100378.59;;;17.50;100.00
8286;BME280;4181;43.416;24.598;2023-09-19T02:19:54;100377.59;;;17.65;100.00
8286;BME280;4181;43.416;24.598;2023-09-19T02:22:23;100378.56;;;17.79;100.00
8286;BME280;4181;43.416;24.598;2023-09-19T02:24:50;100384.03;;;17.84;100.00
8286;BME280;4181;43.416;24.598;2023-09-19T02:27:16;100378.53;;;17.55;100.00
8286;BME280;4181;43.416;24.598;2023-09-19T02:29:42;100378.13;;;17.38;100.00
8286;BME280;4181;43.416;24.598;2023-09-19T02:32:08;100368.66;;;17.16;100.00
8286;BME280;4181;43.416;24.598;2023-09-19T02:34:36;100359.84;;;17.19;100.00
8286;BME280;4181;43.416;24.598;2023-09-19T02:37:04;100343.16;;;17.34;100.00
8286;BME280;4181;43.416;24.598;2023-09-19T02:39:33;100347.41;;;17.50;100.00
8286;BME280;4181;43.416;24.598;2023-09-19T02:42:00;100342.88;;;17.64;100.00
8286;BME280;4181;43.416;24.598;2023-09-19T02:44:25;100361.66;;;17.62;100.00
8286;BME280;4181;43.416;24.598;2023-09-19T02:46:51;100351.47;;;17.29;100.00
8286;BME280;4181;43.416;24.598;2023-09-19T02:49:17;100344.81;;;17.30;100.00
8286;BME280;4181;43.416;24.598;2023-09-19T02:51:43;100348.50;;;16.87;100.00
8286;BME280;4181;43.416;24.598;2023-09-19T02:54:09;100352.09;;;16.49;100.00
8286;BME280;4181;43.416;24.598;2023-09-19T02:56:35;100330.63;;;15.82;100.00
8286;BME280;4181;43.416;24.598;2023-09-19T02:59:01;100304.75;;;15.83;100.00
8286;BME280;4181;43.416;24.598;2023-09-19T03:01:27;100294.59;;;15.83;100.00
8286;BME280;4181;43.416;24.598;2023-09-19T03:03:53;100278.03;;;15.93;100.00
8286;BME280;4181;43.416;24.598;2023-09-19T03:06:19;100274.38;;;16.03;100.00
8286;BME280;4181;43.416;24.598;2023-09-19T03:08:46;100268.09;;;15.97;100.00
8286;BME280;4181;43.416;24.598;2023-09-19T03:11:12;100271.75;;;15.83;100.00
8286;BME280;4181;43.416;24.598;2023-09-19T03:13:39;100262.38;;;15.89;100.00
8286;BME280;4181;43.416;24.598;2023-09-19T03:16:05;100260.59;;;16.08;100.00
8286;BME280;4181;43.416;24.598;2023-09-19T03:18:32;100256.47;;;16.10;100.00
8286;BME280;4181;43.416;24.598;2023-09-19T03:20:59;100261.47;;;16.03;100.00
8286;BME280;4181;43.416;24.598;2023-09-19T03:23:28;100257.22;;;16.21;100.00
8286;BME280;4181;43.416;24.598;2023-09-19T03:25:54;100254.97;;;16.28;100.00
8286;BME280;4181;43.416;24.598;2023-09-19T03:28:21;100255.16;;;16.47;100.00
8286;BME280;4181;43.416;24.598;2023-09-19T03:31:00;100258.63;;;16.62;100.00
8286;BME280;4181;43.416;24.598;2023-09-19T03:33:26;100266.38;;;16.55;100.00
8286;BME280;4181;43.416;24.598;2023-09-19T03:35:52;100269.63;;;16.62;100.00
8286;BME280;4181;43.416;24.598;2023-09-19T03:38:19;100267.59;;;16.73;100.00
8286;BME280;4181;43.416;24.598;2023-09-19T03:40:44;100269.38;;;16.92;100.00
8286;BME280;4181;43.416;24.598;2023-09-19T03:43:10;100277.34;;;16.94;100.00
8286;BME280;4181;43.416;24.598;2023-09-19T03:45:35;100279.97;;;17.09;100.00
8286;BME280;4181;43.416;24.598;2023-09-19T03:48:01;100287.50;;;17.27;100.00
8286;BME280;4181;43.416;24.598;2023-09-19T03:50:26;100292.38;;;17.35;100.00
8286;BME280;4181;43.416;24.598;2023-09-19T03:52:56;100295.66;;;17.37;100.00
8286;BME280;4181;43.416;24.598;2023-09-19T03:55:22;100301.81;;;17.29;100.00
8286;BME280;4181;43.416;24.598;2023-09-19T03:57:48;100318.13;;;17.25;100.00
8286;BME280;4181;43.416;24.598;2023-09-19T04:00:14;100312.38;;;17.22;100.00
8286;BME280;4181;43.416;24.598;2023-09-19T04:02:43;100309.66;;;17.17;100.00
8286;BME280;4181;43.416;24.598;2023-09-19T04:05:09;100308.56;;;16.84;100.00
8286;BME280;4181;43.416;24.598;2023-09-19T04:07:35;100316.56;;;16.81;100.00
8286;BME280;4181;43.416;24.598;2023-09-19T04:10:01;100313.34;;;16.74;100.00
8286;BME280;4181;43.416;24.598;2023-09-19T04:12:27;100319.81;;;16.88;100.00
8286;BME280;4181;43.416;24.598;2023-09-19T04:14:53;100318.06;;;17.02;100.00
8286;BME280;4181;43.416;24.598;2023-09-19T04:17:18;100322.63;;;17.16;100.00
8286;BME280;4181;43.416;24.598;2023-09-19T04:19:44;100316.72;;;17.28;100.00
8286;BME280;4181;43.416;24.598;2023-09-19T04:22:11;100320.78;;;17.35;100.00
8286;BME280;4181;43.416;24.598;2023-09-19T04:24:37;100334.56;;;17.35;100.00
8286;BME280;4181;43.416;24.598;2023-09-19T04:27:04;100323.19;;;17.42;100.00
8286;BME280;4181;43.416;24.598;2023-09-19T04:29:29;100326.47;;;17.49;100.00
8286;BME280;4181;43.416;24.598;2023-09-19T04:31:56;100329.22;;;17.73;100.00
8286;BME280;4181;43.416;24.598;2023-09-19T04:34:24;100324.88;;;18.14;100.00
8286;BME280;4181;43.416;24.598;2023-09-19T04:36:50;100329.63;;;18.50;100.00
8286;BME280;4181;43.416;24.598;2023-09-19T04:39:15;100327.13;;;18.86;100.00
8286;BME280;4181;43.416;24.598;2023-09-19T04:41:42;100339.72;;;19.11;100.00
8286;BME280;4181;43.416;24.598;2023-09-19T04:44:07;100343.56;;;19.28;100.00
8286;BME280;4181;43.416;24.598;2023-09-19T04:46:36;100349.16;;;19.42;100.00
8286;BME280;4181;43.416;24.598;2023-09-19T04:49:01;100351.53;;;19.48;100.00
8286;BME280;4181;43.416;24.598;2023-09-19T04:51:29;100340.28;;;19.58;100.00
8286;BME280;4181;43.416;24.598;2023-09-19T04:54:00;100347.06;;;19.66;100.00
8286;BME280;4181;43.416;24.598;2023-09-19T04:56:25;100343.16;;;19.80;100.00
8286;BME280;4181;43.416;24.598;2023-09-19T04:58:50;100342.97;;;19.90;100.00
8286;BME280;4181;43.416;24.598;2023-09-19T05:01:16;100344.81;;;20.22;100.00
8286;BME280;4181;43.416;24.598;2023-09-19T05:03:41;100344.34;;;20.56;100.00
8286;BME280;4181;43.416;24.598;2023-09-19T05:06:07;100342.41;;;20.56;100.00
8286;BME280;4181;43.416;24.598;2023-09-19T05:08:33;100338.22;;;20.45;100.00
8286;BME280;4181;43.416;24.598;2023-09-19T05:10:58;100329.50;;;20.38;100.00
8286;BME280;4181;43.416;24.598;2023-09-19T05:13:26;100325.94;;;20.38;100.00
8286;BME280;4181;43.416;24.598;2023-09-19T05:15:52;100331.81;;;20.58;100.00
8286;BME280;4181;43.416;24.598;2023-09-19T05:18:18;100326.03;;;20.68;100.00
8286;BME280;4181;43.416;24.598;2023-09-19T05:20:43;100316.81;;;20.59;100.00
8286;BME280;4181;43.416;24.598;2023-09-19T05:23:09;100316.81;;;20.59;100.00
8286;BME280;4181;43.416;24.598;2023-09-19T05:25:37;100321.34;;;20.55;100.00
8286;BME280;4181;43.416;24.598;2023-09-19T05:28:07;100320.41;;;20.60;100.00
8286;BME280;4181;43.416;24.598;2023-09-19T05:30:34;100319.09;;;20.57;100.00
8286;BME280;4181;43.416;24.598;2023-09-19T05:33:04;100307.16;;;20.57;100.00
8286;BME280;4181;43.416;24.598;2023-09-19T05:35:31;100304.03;;;20.72;100.00
8286;BME280;4181;43.416;24.598;2023-09-19T05:37:56;100307.91;;;20.84;100.00
8286;BME280;4181;43.416;24.598;2023-09-19T05:40:24;100293.72;;;20.86;100.00
8286;BME280;4181;43.416;24.598;2023-09-19T05:42:49;100302.72;;;20.91;100.00
8286;BME280;4181;43.416;24.598;2023-09-19T05:45:16;100290.34;;;21.11;100.00
8286;BME280;4181;43.416;24.598;2023-09-19T05:47:50;100295.16;;;21.27;100.00
8286;BME280;4181;43.416;24.598;2023-09-19T05:50:16;100287.41;;;21.47;100.00
8286;BME280;4181;43.416;24.598;2023-09-19T05:52:42;100293.00;;;21.86;100.00
8286;BME280;4181;43.416;24.598;2023-09-19T05:55:08;100304.38;;;22.32;100.00
8286;BME280;4181;43.416;24.598;2023-09-19T05:57:34;100301.03;;;22.78;100.00
8286;BME280;4181;43.416;24.598;2023-09-19T06:00:00;100299.16;;;23.24;100.00
8286;BME280;4181;43.416;24.598;2023-09-19T06:02:25;100294.66;;;23.57;100.00
8286;BME280;4181;43.416;24.598;2023-09-19T06:04:55;100289.13;;;23.87;100.00
8286;BME280;4181;43.416;24.598;2023-09-19T06:07:22;100297.91;;;24.06;100.00
8286;BME280;4181;43.416;24.598;2023-09-19T06:09:48;100287.75;;;24.01;100.00
8286;BME280;4181;43.416;24.598;2023-09-19T06:12:14;100291.84;;;23.95;100.00
8286;BME280;4181;43.416;24.598;2023-09-19T06:14:43;100288.13;;;23.91;100.00
8286;BME280;4181;43.416;24.598;2023-09-19T06:17:09;100290.47;;;24.18;100.00
8286;BME280;4181;43.416;24.598;2023-09-19T06:19:34;100292.31;;;24.35;100.00
8286;BME280;4181;43.416;24.598;2023-09-19T06:22:00;100296.50;;;24.20;100.00
8286;BME280;4181;43.416;24.598;2023-09-19T06:24:25;100292.66;;;24.04;100.00
8286;BME280;4181;43.416;24.598;2023-09-19T06:26:51;100298.63;;;23.86;100.00
8286;BME280;4181;43.416;24.598;2023-09-19T06:29:18;100300.84;;;23.71;100.00
8286;BME280;4181;43.416;24.598;2023-09-19T06:31:46;100296.41;;;23.70;100.00
8286;BME280;4181;43.416;24.598;2023-09-19T06:34:13;100301.59;;;23.80;100.00
8286;BME280;4181;43.416;24.598;2023-09-19T06:36:56;100294.81;;;23.99;100.00
8286;BME280;4181;43.416;24.598;2023-09-19T06:39:22;100297.50;;;24.16;100.00
8286;BME280;4181;43.416;24.598;2023-09-19T06:41:52;100285.75;;;24.31;100.00
8286;BME280;4181;43.416;24.598;2023-09-19T06:44:21;100284.22;;;24.62;100.00
8286;BME280;4181;43.416;24.598;2023-09-19T06:46:52;100296.00;;;24.88;100.00
8286;BME280;4181;43.416;24.598;2023-09-19T06:49:18;100285.63;;;25.10;100.00
8286;BME280;4181;43.416;24.598;2023-09-19T06:51:43;100290.81;;;25.32;100.00
8286;BME280;4181;43.416;24.598;2023-09-19T06:54:09;100291.66;;;25.44;100.00
8286;BME280;4181;43.416;24.598;2023-09-19T06:56:35;100294.50;;;25.56;100.00
8286;BME280;4181;43.416;24.598;2023-09-19T06:59:01;100283.75;;;25.46;100.00
8286;BME280;4181;43.416;24.598;2023-09-19T07:01:28;100288.41;;;25.42;100.00
8286;BME280;4181;43.416;24.598;2023-09-19T07:03:53;100286.91;;;25.45;100.00
8286;BME280;4181;43.416;24.598;2023-09-19T07:06:19;100278.91;;;25.55;100.00
8286;BME280;4181;43.416;24.598;2023-09-19T07:08:44;100280.53;;;25.80;100.00
8286;BME280;4181;43.416;24.598;2023-09-19T07:11:10;100276.72;;;26.09;100.00
8286;BME280;4181;43.416;24.598;2023-09-19T07:13:37;100272.34;;;26.36;100.00
8286;BME280;4181;43.416;24.598;2023-09-19T07:16:03;100267.25;;;26.77;100.00
8286;BME280;4181;43.416;24.598;2023-09-19T07:18:29;100267.06;;;26.98;100.00
8286;BME280;4181;43.416;24.598;2023-09-19T07:20:58;100260.38;;;27.30;100.00
8286;BME280;4181;43.416;24.598;2023-09-19T07:23:30;100257.66;;;27.49;100.00
8286;BME280;4181;43.416;24.598;2023-09-19T07:26:02;100250.47;;;27.64;100.00
8286;BME280;4181;43.416;24.598;2023-09-19T07:28:30;100254.69;;;27.73;100.00
8286;BME280;4181;43.416;24.598;2023-09-19T07:30:56;100251.34;;;27.83;100.00
8286;BME280;4181;43.416;24.598;2023-09-19T07:33:21;100250.25;;;28.03;100.00
8286;BME280;4181;43.416;24.598;2023-09-19T07:35:47;100254.41;;;28.09;100.00
8286;BME280;4181;43.416;24.598;2023-09-19T07:38:13;100249.28;;;28.30;100.00
8286;BME280;4181;43.416;24.598;2023-09-19T07:40:39;100243.72;;;28.49;100.00
8286;BME280;4181;43.416;24.598;2023-09-19T07:43:05;100244.44;;;28.46;100.00
8286;BME280;4181;43.416;24.598;2023-09-19T07:45:32;100246.78;;;28.25;100.00
8286;BME280;4181;43.416;24.598;2023-09-19T07:47:58;100244.75;;;27.91;100.00
8286;BME280;4181;43.416;24.598;2023-09-19T07:50:26;100238.78;;;27.77;100.00
8286;BME280;4181;43.416;24.598;2023-09-19T07:52:52;100244.03;;;27.79;100.00
8286;BME280;4181;43.416;24.598;2023-09-19T07:55:18;100242.00;;;27.79;100.00
8286;BME280;4181;43.416;24.598;2023-09-19T07:57:45;100234.06;;;27.81;100.00
8286;BME280;4181;43.416;24.598;2023-09-19T08:00:11;100232.16;;;27.85;100.00
8286;BME280;4181;43.416;24.598;2023-09-19T08:02:37;100222.50;;;27.98;100.00
8286;BME280;4181;43.416;24.598;2023-09-19T08:05:07;100227.53;;;28.08;100.00
8286;BME280;4181;43.416;24.598;2023-09-19T08:07:37;100216.19;;;28.20;100.00
8286;BME280;4181;43.416;24.598;2023-09-19T08:10:04;100223.88;;;28.42;100.00
8286;BME280;4181;43.416;24.598;2023-09-19T08:12:34;100222.25;;;28.41;100.00
8286;BME280;4181;43.416;24.598;2023-09-19T08:15:02;100226.03;;;28.30;100.00
8286;BME280;4181;43.416;24.598;2023-09-19T08:17:28;100228.63;;;28.38;100.00
8286;BME280;4181;43.416;24.598;2023-09-19T08:19:53;100221.13;;;28.62;100.00
8286;BME280;4181;43.416;24.598;2023-09-19T08:22:19;100217.81;;;28.98;100.00
8286;BME280;4181;43.416;24.598;2023-09-19T08:24:45;100197.03;;;29.21;100.00
8286;BME280;4181;43.416;24.598;2023-09-19T08:27:11;100190.84;;;29.57;100.00
8286;BME280;4181;43.416;24.598;2023-09-19T08:29:37;100186.72;;;29.74;100.00
8286;BME280;4181;43.416;24.598;2023-09-19T08:32:03;100177.00;;;29.94;100.00
8286;BME280;4181;43.416;24.598;2023-09-19T08:34:29;100176.06;;;30.13;100.00
8286;BME280;4181;43.416;24.598;2023-09-19T08:36:56;100176.00;;;30.09;100.00
8286;BME280;4181;43.416;24.598;2023-09-19T08:39:25;100173.97;;;30.10;100.00
8286;BME280;4181;43.416;24.598;2023-09-19T08:41:58;100177.06;;;30.01;100.00
8286;BME280;4181;43.416;24.598;2023-09-19T08:44:24;100174.50;;;29.89;100.00
8286;BME280;4181;43.416;24.598;2023-09-19T08:46:54;100181.16;;;29.77;100.00
8286;BME280;4181;43.416;24.598;2023-09-19T08:49:28;100187.44;;;29.67;100.00
8286;BME280;4181;43.416;24.598;2023-09-19T08:52:10;100181.34;;;29.43;100.00
8286;BME280;4181;43.416;24.598;2023-09-19T08:54:41;100184.19;;;29.20;100.00
8286;BME280;4181;43.416;24.598;2023-09-19T08:57:09;100178.25;;;29.25;100.00
8286;BME280;4181;43.416;24.598;2023-09-19T08:59:41;100174.63;;;29.47;100.00
8286;BME280;4181;43.416;24.598;2023-09-19T09:02:11;100165.94;;;29.82;100.00
8286;BME280;4181;43.416;24.598;2023-09-19T09:04:41;100160.19;;;30.01;100.00
8286;BME280;4181;43.416;24.598;2023-09-19T09:07:12;100165.16;;;30.11;100.00
8286;BME280;4181;43.416;24.598;2023-09-19T09:09:42;100158.41;;;29.90;100.00
8286;BME280;4181;43.416;24.598;2023-09-19T09:12:14;100168.72;;;29.78;100.00
8286;BME280;4181;43.416;24.598;2023-09-19T09:14:44;100165.22;;;29.62;100.00
8286;BME280;4181;43.416;24.598;2023-09-19T09:17:10;100176.94;;;29.42;100.00
8286;BME280;4181;43.416;24.598;2023-09-19T09:19:36;100178.00;;;29.34;100.00
8286;BME280;4181;43.416;24.598;2023-09-19T09:22:09;100172.13;;;29.20;100.00
8286;BME280;4181;43.416;24.598;2023-09-19T09:24:35;100171.78;;;29.02;100.00
8286;BME280;4181;43.416;24.598;2023-09-19T09:27:06;100187.13;;;28.86;100.00
8286;BME280;4181;43.416;24.598;2023-09-19T09:29:42;100179.31;;;28.76;100.00
8286;BME280;4181;43.416;24.598;2023-09-19T09:34:55;100195.25;;;28.52;100.00
8286;BME280;4181;43.416;24.598;2023-09-19T09:37:22;100192.56;;;28.40;100.00
8286;BME280;4181;43.416;24.598;2023-09-19T09:39:52;100197.28;;;28.36;100.00
8286;BME280;4181;43.416;24.598;2023-09-19T09:42:48;100193.19;;;28.49;100.00
8286;BME280;4181;43.416;24.598;2023-09-19T09:45:22;100193.53;;;28.48;100.00
8286;BME280;4181;43.416;24.598;2023-09-19T09:48:03;100185.13;;;28.67;100.00
8286;BME280;4181;43.416;24.598;2023-09-19T09:50:35;100175.44;;;28.84;100.00
8286;BME280;4181;43.416;24.598;2023-09-19T09:53:29;100178.88;;;28.96;100.00
8286;BME280;4181;43.416;24.598;2023-09-19T09:56:07;100182.19;;;29.02;100.00
8286;BME280;4181;43.416;24.598;2023-09-19T09:58:37;100183.63;;;28.92;100.00
8286;BME280;4181;43.416;24.598;2023-09-19T10:01:04;100179.25;;;28.95;100.00
8286;BME280;4181;43.416;24.598;2023-09-19T10:03:41;100181.22;;;28.94;100.00
8286;BME280;4181;43.416;24.598;2023-09-19T10:06:16;100181.59;;;28.93;100.00
8286;BME280;4181;43.416;24.598;2023-09-19T10:08:58;100164.75;;;28.93;100.00
8286;BME280;4181;43.416;24.598;2023-09-19T10:11:48;100172.94;;;29.01;100.00
8286;BME280;4181;43.416;24.598;2023-09-19T10:14:27;100173.63;;;29.14;100.00
8286;BME280;4181;43.416;24.598;2023-09-19T10:16:56;100167.06;;;29.29;100.00
8286;BME280;4181;43.416;24.598;2023-09-19T10:19:32;100160.81;;;29.39;100.00
8286;BME280;4181;43.416;24.598;2023-09-19T10:22:00;100163.38;;;29.47;100.00
8286;BME280;4181;43.416;24.598;2023-09-19T10:24:28;100165.03;;;29.52;100.00
8286;BME280;4181;43.416;24.598;2023-09-19T10:26:55;100165.16;;;29.59;100.00
8286;BME280;4181;43.416;24.598;2023-09-19T10:29:21;100162.16;;;29.71;100.00
8286;BME280;4181;43.416;24.598;2023-09-19T10:31:50;100147.88;;;29.83;100.00
8286;BME280;4181;43.416;24.598;2023-09-19T10:34:19;100142.91;;;29.99;100.00
8286;BME280;4181;43.416;24.598;2023-09-19T10:36:46;100146.66;;;30.10;100.00
8286;BME280;4181;43.416;24.598;2023-09-19T10:39:16;100142.31;;;30.16;100.00
8286;BME280;4181;43.416;24.598;2023-09-19T10:41:47;100136.28;;;30.14;100.00
8286;BME280;4181;43.416;24.598;2023-09-19T10:44:23;100140.16;;;30.06;100.00
8286;BME280;4181;43.416;24.598;2023-09-19T10:46:51;100138.34;;;29.91;100.00
8286;BME280;4181;43.416;24.598;2023-09-19T10:49:18;100136.63;;;29.83;100.00
8286;BME280;4181;43.416;24.598;2023-09-19T10:51:44;100138.09;;;29.73;100.00
8286;BME280;4181;43.416;24.598;2023-09-19T10:54:13;100131.22;;;29.71;100.00
8286;BME280;4181;43.416;24.598;2023-09-19T10:56:46;100136.97;;;29.55;100.00
8286;BME280;4181;43.416;24.598;2023-09-19T10:59:16;100133.50;;;29.39;100.00
8286;BME280;4181;43.416;24.598;2023-09-19T11:01:53;100135.56;;;29.42;100.00
8286;BME280;4181;43.416;24.598;2023-09-19T11:04:34;100135.06;;;29.37;100.00
8286;BME280;4181;43.416;24.598;2023-09-19T11:07:08;100135.50;;;29.39;100.00
8286;BME280;4181;43.416;24.598;2023-09-19T11:09:55;100137.88;;;29.37;100.00
8286;BME280;4181;43.416;24.598;2023-09-19T11:27:09;100128.69;;;29.40;100.00
8286;BME280;4181;43.416;24.598;2023-09-19T11:29:35;100127.72;;;29.29;100.00
8286;BME280;4181;43.416;24.598;2023-09-19T11:32:02;100132.44;;;29.25;100.00
8286;BME280;4181;43.416;24.598;2023-09-19T11:34:45;100128.47;;;29.26;100.00
8286;BME280;4181;43.416;24.598;2023-09-19T11:40:09;100127.94;;;28.98;100.00
8286;BME280;4181;43.416;24.598;2023-09-19T11:42:46;100125.19;;;28.79;100.00
8286;BME280;4181;43.416;24.598;2023-09-19T11:48:13;100126.09;;;28.64;100.00
8286;BME280;4181;43.416;24.598;2023-09-19T11:50:42;100112.06;;;28.64;100.00
8286;BME280;4181;43.416;24.598;2023-09-19T11:53:11;100116.19;;;28.70;100.00
8286;BME280;4181;43.416;24.598;2023-09-19T11:55:38;100111.38;;;28.70;100.00
8286;BME280;4181;43.416;24.598;2023-09-19T11:58:06;100114.78;;;28.79;100.00
8286;BME280;4181;43.416;24.598;2023-09-19T12:00:33;100108.47;;;28.86;100.00
8286;BME280;4181;43.416;24.598;2023-09-19T12:03:04;100106.06;;;28.88;100.00
8286;BME280;4181;43.416;24.598;2023-09-19T12:05:32;100108.56;;;28.93;100.00
8286;BME280;4181;43.416;24.598;2023-09-19T12:07:59;100107.97;;;28.80;100.00
8286;BME280;4181;43.416;24.598;2023-09-19T12:10:24;100109.72;;;28.88;100.00
8286;BME280;4181;43.416;24.598;2023-09-19T12:12:50;100102.56;;;29.13;100.00
8286;BME280;4181;43.416;24.598;2023-09-19T12:15:27;100095.97;;;29.28;100.00
8286;BME280;4181;43.416;24.598;2023-09-19T12:17:59;100093.41;;;29.42;100.00
8286;BME280;4181;43.416;24.598;2023-09-19T12:20:24;100088.75;;;29.53;100.00
8286;BME280;4181;43.416;24.598;2023-09-19T12:22:50;100086.19;;;29.67;100.00
8286;BME280;4181;43.416;24.598;2023-09-19T12:25:16;100079.84;;;29.74;100.00
8286;BME280;4181;43.416;24.598;2023-09-19T12:27:50;100071.59;;;29.88;100.00
8286;BME280;4181;43.416;24.598;2023-09-19T12:30:18;100084.69;;;29.77;100.00
8286;BME280;4181;43.416;24.598;2023-09-19T12:32:46;100078.78;;;29.59;100.00
8286;BME280;4181;43.416;24.598;2023-09-19T12:35:27;100079.81;;;29.48;100.00
8286;BME280;4181;43.416;24.598;2023-09-19T12:37:54;100089.06;;;29.22;100.00
8286;BME280;4181;43.416;24.598;2023-09-19T12:40:21;100080.25;;;29.24;100.00
8286;BME280;4181;43.416;24.598;2023-09-19T12:42:50;100084.88;;;29.13;100.00
8286;BME280;4181;43.416;24.598;2023-09-19T12:45:19;100092.88;;;29.11;100.00
8286;BME280;4181;43.416;24.598;2023-09-19T12:51:07;100090.25;;;28.99;100.00
8286;BME280;4181;43.416;24.598;2023-09-19T12:53:45;100082.97;;;28.98;100.00
8286;BME280;4181;43.416;24.598;2023-09-19T12:56:16;100085.78;;;28.98;100.00
8286;BME280;4181;43.416;24.598;2023-09-19T13:01:15;100088.22;;;28.77;100.00
8286;BME280;4181;43.416;24.598;2023-09-19T13:03:41;100092.09;;;28.69;100.00
8286;BME280;4181;43.416;24.598;2023-09-19T13:06:07;100096.81;;;28.65;100.00
8286;BME280;4181;43.416;24.598;2023-09-19T13:08:37;100096.56;;;28.50;100.00
8286;BME280;4181;43.416;24.598;2023-09-19T13:11:15;100098.38;;;28.43;100.00
8286;BME280;4181;43.416;24.598;2023-09-19T13:14:15;100093.75;;;28.31;100.00
8286;BME280;4181;43.416;24.598;2023-09-19T13:17:03;100097.38;;;28.32;100.00
8286;BME280;4181;43.416;24.598;2023-09-19T13:19:45;100100.09;;;28.28;100.00
8286;BME280;4181;43.416;24.598;2023-09-19T13:22:36;100092.81;;;28.24;100.00
8286;BME280;4181;43.416;24.598;2023-09-19T13:25:04;100096.03;;;28.07;100.00
8286;BME280;4181;43.416;24.598;2023-09-19T13:27:32;100084.69;;;27.84;100.00
8286;BME280;4181;43.416;24.598;2023-09-19T13:29:58;100086.91;;;27.75;100.00
8286;BME280;4181;43.416;24.598;2023-09-19T13:32:24;100080.41;;;27.71;100.00
8286;BME280;4181;43.416;24.598;2023-09-19T13:34:49;100074.34;;;27.69;100.00